Time;durP1;ratioP1;P1;durP2;ratioP2;P2;SDS_P1;SDS_P2;PMS_P1;PMS_P2;Temp;Humidity;BMP_temperature;BMP_pressure;BME280_temperature;BME280_humidity;BME280_pressure;Samples;Min_cycle;Max_cycle;Signal;HPM_P1;HPM_P2
2024/03/14 00:00:21;;;;;;;18.00;10.00;;;;;;;3.68;64.00;99965.63;106272;1254;59700;-74
2024/03/14 00:02:49;;;;;;;14.70;10.20;;;;;;;3.63;63.68;99963.59;106185;1253;71859;-71
2024/03/14 00:05:18;;;;;;;16.70;9.90;;;;;;;3.64;63.88;99963.56;106161;1257;68786;-75
2024/03/14 00:07:48;;;;;;;15.80;9.10;;;;;;;3.72;63.61;99959.03;106129;1254;72621;-74
2024/03/14 00:10:17;;;;;;;17.30;10.50;;;;;;;3.71;63.65;99957.52;105947;1256;59724;-74
2024/03/14 00:12:46;;;;;;;16.10;9.80;;;;;;;3.64;63.54;99953.41;106054;1257;59625;-74
2024/03/14 00:15:15;;;;;;;14.10;9.50;;;;;;;3.55;63.68;99954.10;106011;1253;73108;-74
2024/03/14 00:17:47;;;;;;;16.80;9.80;;;;;;;3.48;63.58;99956.19;107512;1253;69310;-74
2024/03/14 00:20:15;;;;;;;13.30;9.60;;;;;;;3.53;63.75;99954.35;108800;1253;71512;-72
2024/03/14 00:22:44;;;;;;;15.00;10.00;;;;;;;3.56;64.05;99951.23;108609;1253;59236;-72
2024/03/14 00:25:16;;;;;;;14.10;9.50;;;;;;;3.50;63.91;99945.52;108747;1254;58981;-71
2024/03/14 00:27:44;;;;;;;18.40;11.10;;;;;;;3.47;63.96;99941.60;108802;1253;73733;-73
2024/03/14 00:30:14;;;;;;;16.20;9.80;;;;;;;3.44;63.80;99942.84;108993;1254;69288;-73
2024/03/14 00:32:42;;;;;;;14.60;9.90;;;;;;;3.51;64.07;99944.57;108595;1254;71225;-73
2024/03/14 00:35:12;;;;;;;15.10;9.40;;;;;;;3.53;63.76;99943.73;108886;1254;61162;-73
2024/03/14 00:37:44;;;;;;;14.30;10.10;;;;;;;3.49;63.90;99948.05;109099;1254;60078;-74
2024/03/14 00:40:11;;;;;;;15.30;9.90;;;;;;;3.46;64.04;99951.10;109234;1252;73621;-75
2024/03/14 00:42:45;;;;;;;16.90;10.30;;;;;;;3.44;64.00;99955.30;109170;1253;69094;-72
2024/03/14 00:45:15;;;;;;;16.50;9.20;;;;;;;3.51;63.93;99952.06;109227;1253;71458;-72
2024/03/14 00:47:43;;;;;;;15.50;9.60;;;;;;;3.52;64.09;99946.95;109186;1253;58787;-72
2024/03/14 00:50:13;;;;;;;15.80;10.40;;;;;;;3.46;63.92;99944.63;109273;1253;58122;-72
2024/03/14 00:52:42;;;;;;;19.00;11.00;;;;;;;3.40;64.09;99948.89;109291;1252;71770;-75
2024/03/14 00:55:09;;;;;;;14.80;9.50;;;;;;;3.37;64.31;99949.52;109267;1252;68909;-74
2024/03/14 00:57:38;;;;;;;15.10;9.30;;;;;;;3.42;64.18;99949.11;109291;1254;70430;-75
2024/03/14 01:00:13;;;;;;;15.70;10.20;;;;;;;3.40;64.10;99946.66;109405;1254;58777;-73
2024/03/14 01:02:43;;;;;;;14.90;9.00;;;;;;;3.32;64.12;99941.62;109294;1253;58744;-74
2024/03/14 01:05:11;;;;;;;15.00;9.80;;;;;;;3.28;64.29;99938.59;109260;1254;71758;-74
2024/03/14 01:07:39;;;;;;;16.00;10.70;;;;;;;3.23;64.30;99934.59;109341;1254;68890;-75
2024/03/14 01:10:07;;;;;;;20.10;9.70;;;;;;;3.23;64.34;99935.80;109243;1254;71524;-73
2024/03/14 01:12:35;;;;;;;15.50;9.50;;;;;;;3.31;64.34;99931.33;108986;1255;57966;-72
2024/03/14 01:15:06;;;;;;;14.70;9.40;;;;;;;3.32;64.58;99928.50;109010;1253;61323;-73
2024/03/14 01:17:34;;;;;;;15.60;9.40;;;;;;;3.28;64.38;99936.16;109288;1254;72774;-75
2024/03/14 01:20:03;;;;;;;16.00;8.60;;;;;;;3.25;64.43;99935.90;109308;1254;68834;-75
2024/03/14 01:22:32;;;;;;;17.60;9.10;;;;;;;3.22;64.62;99929.81;109141;1254;71636;-74
2024/03/14 01:25:05;;;;;;;12.90;8.50;;;;;;;3.29;64.44;99931.66;109441;1254;58235;-75
2024/03/14 01:28:53;;;;;;;14.60;8.80;;;;;;;3.30;64.49;99934.29;106005;1292;600196;-71
2024/03/14 01:31:20;;;;;;;14.10;9.10;;;;;;;3.22;64.40;99937.83;108484;1266;57951;-73
2024/03/14 01:33:48;;;;;;;14.10;8.80;;;;;;;3.16;64.25;99941.61;108485;1266;58754;-73
2024/03/14 01:36:15;;;;;;;14.70;8.70;;;;;;;3.11;64.26;99933.58;108548;1262;71251;-72
2024/03/14 01:38:43;;;;;;;14.20;9.20;;;;;;;3.18;64.29;99932.89;108721;1263;68144;-72
2024/03/14 01:41:18;;;;;;;15.40;10.50;;;;;;;3.19;64.38;99932.12;108545;1264;71357;-74
2024/03/14 01:43:58;;;;;;;13.10;8.80;;;;;;;3.14;64.52;99935.27;108687;1261;57617;-74
2024/03/14 01:46:27;;;;;;;12.50;8.70;;;;;;;3.05;64.42;99937.58;109553;1252;58814;-73
2024/03/14 01:48:55;;;;;;;14.40;8.50;;;;;;;2.95;64.66;99940.91;109472;1253;71012;-73
2024/03/14 01:51:24;;;;;;;15.70;9.00;;;;;;;2.92;64.89;99940.20;109400;1253;69135;-73
2024/03/14 01:53:52;;;;;;;12.50;8.10;;;;;;;3.01;64.92;99941.86;109475;1252;71661;-74
2024/03/14 01:56:21;;;;;;;14.80;8.90;;;;;;;3.03;65.16;99938.59;109389;1254;57984;-73
2024/03/14 01:58:50;;;;;;;19.20;8.90;;;;;;;3.01;65.07;99936.30;109373;1254;58797;-73
2024/03/14 02:01:19;;;;;;;14.20;9.10;;;;;;;2.96;65.09;99938.55;109362;1254;71847;-74
2024/03/14 02:03:51;;;;;;;12.40;8.10;;;;;;;2.90;65.11;99939.34;109270;1259;67797;-73
2024/03/14 02:06:25;;;;;;;12.80;8.00;;;;;;;2.88;65.08;99939.34;108689;1254;70222;-72
2024/03/14 02:08:53;;;;;;;14.60;8.10;;;;;;;2.95;65.25;99937.61;109252;1254;59479;-72
2024/03/14 02:11:21;;;;;;;13.80;8.30;;;;;;;2.94;65.49;99932.25;108696;1254;58870;-74
2024/03/14 02:13:50;;;;;;;14.30;8.00;;;;;;;2.90;65.63;99931.19;109287;1254;71997;-75
2024/03/14 02:16:17;;;;;;;12.80;9.00;;;;;;;2.84;65.62;99929.12;109180;1254;68992;-76
2024/03/14 02:18:45;;;;;;;12.20;8.70;;;;;;;2.79;65.67;99929.69;109297;1254;71138;-73
2024/03/14 02:21:13;;;;;;;12.20;9.10;;;;;;;2.78;65.57;99931.17;109378;1254;60049;-74
2024/03/14 02:23:40;;;;;;;17.90;9.60;;;;;;;2.85;65.79;99924.50;109498;1254;59272;-74
2024/03/14 02:26:08;;;;;;;14.50;8.50;;;;;;;2.86;65.69;99921.97;109331;1256;70823;-74
2024/03/14 02:28:37;;;;;;;13.60;9.00;;;;;;;2.84;65.93;99924.26;109464;1254;68781;-73
2024/03/14 02:31:04;;;;;;;12.70;8.80;;;;;;;2.81;65.87;99918.67;109076;1254;71308;-73
2024/03/14 02:33:32;;;;;;;14.40;9.10;;;;;;;2.78;65.99;99923.31;109130;1254;58076;-73
2024/03/14 02:36:00;;;;;;;17.40;8.50;;;;;;;2.77;66.08;99929.46;109194;1253;59089;-72
2024/03/14 02:38:27;;;;;;;13.90;8.90;;;;;;;2.85;65.92;99927.30;109262;1253;72325;-72
2024/03/14 02:40:55;;;;;;;14.20;9.00;;;;;;;2.86;66.08;99925.49;109347;1252;69908;-71
2024/03/14 02:43:22;;;;;;;13.90;8.00;;;;;;;2.81;65.90;99920.63;109497;1254;71641;-73
2024/03/14 02:45:50;;;;;;;14.30;8.20;;;;;;;2.76;66.17;99923.96;109306;1253;57991;-73
2024/03/14 02:48:18;;;;;;;17.20;9.00;;;;;;;2.72;66.27;99925.60;109456;1253;58745;-73
2024/03/14 02:50:45;;;;;;;13.30;8.60;;;;;;;2.74;66.29;99933.19;109537;1253;71800;-74
2024/03/14 02:53:13;;;;;;;13.60;8.60;;;;;;;2.83;66.03;99933.27;109436;1253;68822;-74
2024/03/14 02:55:45;;;;;;;14.10;8.40;;;;;;;2.83;66.07;99930.75;109323;1254;71090;-73
2024/03/14 02:58:13;;;;;;;17.90;9.40;;;;;;;2.79;66.16;99929.90;109256;1254;57989;-72
2024/03/14 03:00:42;;;;;;;14.00;8.60;;;;;;;2.75;66.34;99931.86;109396;1253;58762;-74
2024/03/14 03:03:10;;;;;;;13.10;8.20;;;;;;;2.72;66.47;99927.02;109486;1254;73219;-72
2024/03/14 03:05:38;;;;;;;13.60;8.70;;;;;;;2.82;66.58;99931.58;109414;1253;68835;-73
2024/03/14 03:08:05;;;;;;;13.00;9.60;;;;;;;2.87;66.79;99929.98;109218;1253;71424;-73
2024/03/14 03:10:33;;;;;;;15.30;9.40;;;;;;;2.84;66.41;99926.54;109215;1252;57985;-73
2024/03/14 03:13:00;;;;;;;14.10;9.30;;;;;;;2.79;66.48;99929.33;109413;1254;59061;-73
2024/03/14 03:15:28;;;;;;;13.60;8.30;;;;;;;2.73;66.65;99926.80;109390;1253;71883;-73
2024/03/14 03:17:55;;;;;;;15.20;9.30;;;;;;;2.71;66.70;99926.05;109468;1253;68850;-74
2024/03/14 03:20:23;;;;;;;15.50;8.80;;;;;;;2.79;66.46;99923.88;109457;1256;71813;-74
2024/03/14 03:23:06;;;;;;;12.80;8.70;;;;;;;2.86;66.57;99921.67;109391;1254;57974;-73
2024/03/14 03:25:34;;;;;;;15.90;9.60;;;;;;;2.82;66.60;99918.78;109481;1254;58532;-72
2024/03/14 03:28:04;;;;;;;14.90;9.90;;;;;;;2.79;67.01;99920.09;109344;1254;71803;-73
2024/03/14 03:30:32;;;;;;;13.30;8.90;;;;;;;2.76;66.88;99921.66;109394;1254;68785;-73
2024/03/14 03:33:00;;;;;;;14.20;9.60;;;;;;;2.73;66.62;99922.73;109448;1254;71368;-75
2024/03/14 03:35:28;;;;;;;12.30;8.00;;;;;;;2.75;66.69;99923.70;109334;1254;59660;-74
2024/03/14 03:37:57;;;;;;;15.00;9.40;;;;;;;2.81;66.63;99920.94;109381;1253;61261;-72
2024/03/14 03:40:29;;;;;;;13.40;9.10;;;;;;;2.83;66.80;99920.48;109422;1253;71833;-73
2024/03/14 03:42:57;;;;;;;14.40;8.90;;;;;;;2.80;66.82;99924.34;109237;1254;68752;-72
2024/03/14 03:45:26;;;;;;;13.20;9.50;;;;;;;2.78;67.08;99922.98;108794;1253;71724;-73
2024/03/14 03:47:58;;;;;;;11.90;9.10;;;;;;;2.74;67.08;99924.23;108293;1254;58575;-73
2024/03/14 03:50:26;;;;;;;15.50;9.80;;;;;;;2.73;66.99;99924.01;108285;1253;59523;-73
2024/03/14 03:52:54;;;;;;;15.90;10.10;;;;;;;2.81;66.86;99926.73;108788;1253;71738;-74
2024/03/14 03:55:21;;;;;;;17.00;10.80;;;;;;;2.81;66.73;99930.73;108656;1254;70147;-72
2024/03/14 03:57:49;;;;;;;18.40;10.70;;;;;;;2.74;66.82;99926.85;109037;1253;71125;-72
2024/03/14 04:03:07;;;;;;;19.70;13.20;;;;;;;2.66;67.00;99931.02;109044;1253;59255;-72
2024/03/14 04:05:39;;;;;;;14.70;10.60;;;;;;;2.66;67.15;99929.59;109123;1254;71829;-73
2024/03/14 04:08:07;;;;;;;14.50;10.30;;;;;;;2.74;66.99;99928.84;108884;1253;68186;-74
2024/03/14 04:10:36;;;;;;;15.60;10.50;;;;;;;2.75;67.06;99932.95;108681;1254;72756;-71
2024/03/14 04:13:04;;;;;;;15.10;10.40;;;;;;;2.73;67.23;99927.66;108381;1253;59713;-76
2024/03/14 04:15:33;;;;;;;16.20;10.50;;;;;;;2.70;67.26;99927.00;108192;1254;59507;-72
2024/03/14 04:18:05;;;;;;;15.60;9.80;;;;;;;2.64;67.17;99920.66;108356;1254;72175;-73
2024/03/14 04:20:38;;;;;;;21.80;12.20;;;;;;;2.61;67.02;99916.30;108615;1253;69011;-75
2024/03/14 04:23:06;;;;;;;14.80;11.50;;;;;;;2.65;67.02;99917.26;108628;1254;70116;-73
2024/03/14 04:25:34;;;;;;;14.40;9.00;;;;;;;2.72;67.03;99916.20;108585;1254;59227;-73
2024/03/14 04:28:02;;;;;;;15.10;10.10;;;;;;;2.69;66.98;99912.59;108758;1253;57782;-74
2024/03/14 04:30:31;;;;;;;14.90;10.30;;;;;;;2.62;67.21;99915.33;108698;1253;72017;-73
2024/03/14 04:32:58;;;;;;;16.70;10.90;;;;;;;2.60;67.32;99922.50;109094;1253;68749;-73
2024/03/14 04:35:26;;;;;;;17.20;10.60;;;;;;;2.59;67.20;99921.40;108957;1255;72099;-73
2024/03/14 04:37:54;;;;;;;18.80;11.00;;;;;;;2.59;67.29;99926.65;108947;1253;61582;-74
2024/03/14 04:40:22;;;;;;;15.00;11.00;;;;;;;2.66;67.11;99929.76;109045;1254;59097;-73
2024/03/14 04:42:57;;;;;;;16.10;11.20;;;;;;;2.75;66.89;99919.85;108956;1254;71813;-72
2024/03/14 04:45:26;;;;;;;19.80;12.50;;;;;;;2.73;66.73;99928.56;108405;1254;69191;-73
2024/03/14 04:47:54;;;;;;;19.10;12.40;;;;;;;2.70;67.06;99938.00;108402;1253;72628;-74
2024/03/14 04:50:25;;;;;;;21.80;13.60;;;;;;;2.69;66.91;99936.56;109146;1253;59514;-75
2024/03/14 04:52:52;;;;;;;22.40;13.90;;;;;;;2.66;66.92;99936.27;109080;1253;58847;-73
2024/03/14 04:55:20;;;;;;;25.60;13.70;;;;;;;2.61;67.06;99934.17;109167;1253;71434;-73
2024/03/14 04:57:48;;;;;;;22.10;12.80;;;;;;;2.62;67.12;99941.98;109027;1254;68842;-73
2024/03/14 05:02:50;;;;;;;29.40;16.60;;;;;;;2.82;67.02;99940.48;109294;1253;57979;-74
2024/03/14 05:05:20;;;;;;;25.30;16.10;;;;;;;2.83;67.03;99943.73;109192;1253;60072;-75
2024/03/14 05:07:50;;;;;;;26.10;15.80;;;;;;;2.83;67.48;99944.45;109312;1256;73878;-73
2024/03/14 05:10:18;;;;;;;27.10;15.30;;;;;;;2.84;67.55;99946.66;108826;1252;68846;-73
2024/03/14 05:12:49;;;;;;;29.20;16.90;;;;;;;2.85;67.69;99943.02;109396;1253;72707;-74
2024/03/14 05:15:17;;;;;;;26.80;16.20;;;;;;;2.87;67.49;99943.77;109294;1252;60057;-74
2024/03/14 05:17:50;;;;;;;25.20;15.70;;;;;;;2.87;67.62;99942.69;109155;1254;58804;-73
2024/03/14 05:20:17;;;;;;;28.50;16.30;;;;;;;2.97;67.73;99941.84;109184;1256;71797;-73
2024/03/14 05:22:45;;;;;;;28.40;14.40;;;;;;;3.06;67.14;99945.20;109081;1254;69343;-72
2024/03/14 05:25:12;;;;;;;29.30;16.40;;;;;;;3.07;67.46;99945.64;108761;1254;73668;-72
2024/03/14 05:27:47;;;;;;;29.20;15.90;;;;;;;3.07;67.68;99947.70;109165;1256;59548;-75
2024/03/14 05:30:26;;;;;;;29.40;17.10;;;;;;;3.05;67.33;99944.33;109173;1253;57906;-72
2024/03/14 05:32:53;;;;;;;28.50;16.70;;;;;;;3.04;67.70;99946.37;107919;1254;72320;-73
2024/03/14 05:35:21;;;;;;;27.60;15.60;;;;;;;3.03;67.84;99942.98;108364;1254;69459;-71
2024/03/14 05:37:49;;;;;;;22.10;13.40;;;;;;;3.02;67.97;99947.39;107385;1254;70316;-72
2024/03/14 05:40:17;;;;;;;19.00;12.70;;;;;;;3.12;67.71;99957.14;107802;1256;61854;-74
2024/03/14 05:42:44;;;;;;;20.70;12.00;;;;;;;3.20;67.37;99958.65;108936;1254;60014;-72
2024/03/14 05:45:13;;;;;;;18.90;12.60;;;;;;;3.18;67.27;99963.15;109062;1254;72643;-73
2024/03/14 05:47:41;;;;;;;20.90;12.50;;;;;;;3.16;67.34;99965.08;109359;1254;69668;-75
2024/03/14 05:50:09;;;;;;;15.80;11.10;;;;;;;3.15;67.21;99971.11;109178;1254;73705;-73
2024/03/14 05:52:39;;;;;;;20.00;12.30;;;;;;;3.14;67.27;99969.41;108935;1254;58267;-74
2024/03/14 05:55:13;;;;;;;15.70;10.30;;;;;;;3.16;67.33;99967.35;109006;1254;60450;-72
2024/03/14 05:57:40;;;;;;;14.70;10.10;;;;;;;3.17;67.06;99971.12;108900;1254;73184;-72
2024/03/14 06:00:11;;;;;;;15.00;9.70;;;;;;;3.27;67.13;99972.66;108997;1254;69046;-74
2024/03/14 06:02:41;;;;;;;16.00;9.10;;;;;;;3.35;66.95;99976.04;107296;1260;71202;-73
2024/03/14 06:05:09;;;;;;;16.20;10.10;;;;;;;3.33;67.08;99972.84;107407;1253;60459;-73
2024/03/14 06:07:36;;;;;;;16.20;9.40;;;;;;;3.32;67.15;99975.41;107649;1256;62798;-74
2024/03/14 06:10:04;;;;;;;12.80;9.50;;;;;;;3.31;67.13;99970.94;107390;1254;74696;-73
2024/03/14 06:12:32;;;;;;;16.80;10.50;;;;;;;3.28;67.32;99975.02;107195;1256;69505;-73
2024/03/14 06:15:01;;;;;;;13.70;9.50;;;;;;;3.22;67.42;99978.29;107364;1254;72688;-73
2024/03/14 06:17:29;;;;;;;18.80;11.10;;;;;;;3.13;67.88;99981.02;107940;1254;59594;-73
2024/03/14 06:19:57;;;;;;;15.00;9.70;;;;;;;3.15;68.25;99976.56;108091;1254;60350;-74
2024/03/14 06:22:24;;;;;;;14.50;9.90;;;;;;;3.16;68.79;99972.95;108034;1253;72579;-74
2024/03/14 06:24:52;;;;;;;13.70;10.80;;;;;;;3.11;69.60;99971.74;107766;1254;68745;-73
2024/03/14 06:27:20;;;;;;;17.60;10.90;;;;;;;3.01;70.06;99975.80;107556;1256;72972;-72
2024/03/14 06:29:47;;;;;;;15.80;10.40;;;;;;;2.92;70.44;99978.38;108050;1254;60453;-73
2024/03/14 06:32:15;;;;;;;14.40;10.10;;;;;;;2.88;70.78;99986.40;106649;1260;60397;-71
2024/03/14 06:34:44;;;;;;;16.90;11.30;;;;;;;2.81;71.14;99985.71;106334;1254;75417;-73
2024/03/14 06:37:11;;;;;;;17.20;10.80;;;;;;;2.73;71.41;99986.27;105736;1256;69005;-70
2024/03/14 06:39:40;;;;;;;16.50;10.60;;;;;;;2.76;71.96;99987.13;106309;1256;71247;-73
2024/03/14 06:42:10;;;;;;;18.30;10.90;;;;;;;2.79;72.28;99985.12;105878;1255;60540;-74
2024/03/14 06:44:37;;;;;;;19.80;11.40;;;;;;;2.76;72.62;99985.70;105925;1258;61893;-74
2024/03/14 06:47:05;;;;;;;18.20;12.30;;;;;;;2.65;72.88;99986.33;105864;1254;74725;-73
2024/03/14 06:49:36;;;;;;;16.60;10.80;;;;;;;2.57;73.51;99986.73;105827;1255;68944;-71
2024/03/14 06:52:06;;;;;;;17.40;12.20;;;;;;;2.52;73.90;99986.92;105756;1254;74247;-75
2024/03/14 06:54:34;;;;;;;21.20;12.90;;;;;;;2.58;74.12;99983.89;105884;1256;60995;-73
2024/03/14 06:57:01;;;;;;;17.40;11.90;;;;;;;2.65;74.08;99985.08;105901;1255;60375;-73
2024/03/14 06:59:29;;;;;;;17.30;11.90;;;;;;;2.64;74.04;99981.69;105803;1260;75203;-75
2024/03/14 07:02:00;;;;;;;18.30;13.40;;;;;;;2.62;74.39;99982.00;105796;1260;69212;-73
2024/03/14 07:04:33;;;;;;;18.50;13.90;;;;;;;2.63;75.22;99982.63;106078;1256;74667;-73
2024/03/14 07:07:04;;;;;;;25.80;20.80;;;;;;;2.66;75.48;99983.83;105983;1257;60399;-73
2024/03/14 07:09:32;;;;;;;27.70;19.50;;;;;;;2.62;75.22;99986.55;106013;1260;60346;-73
2024/03/14 07:12:00;;;;;;;20.10;15.50;;;;;;;2.62;74.90;99989.02;105487;1260;71568;-73
2024/03/14 07:14:29;;;;;;;30.40;20.00;;;;;;;2.65;75.03;99989.30;105753;1254;72043;-73
2024/03/14 07:16:57;;;;;;;38.40;28.80;;;;;;;2.63;75.30;99993.98;106188;1259;72822;-75
2024/03/14 07:19:24;;;;;;;36.20;29.20;;;;;;;2.62;76.03;99994.04;105804;1257;60912;-74
2024/03/14 07:21:55;;;;;;;29.80;24.50;;;;;;;2.70;76.61;100001.03;105623;1254;60855;-73
2024/03/14 07:24:25;;;;;;;33.40;24.90;;;;;;;2.73;76.28;100003.73;105656;1260;75917;-74
2024/03/14 07:26:53;;;;;;;26.20;19.30;;;;;;;2.77;76.53;100007.80;105508;1254;72623;-73
2024/03/14 07:29:21;;;;;;;22.20;17.50;;;;;;;2.90;76.61;100009.33;105568;1254;72437;-75
2024/03/14 07:31:51;;;;;;;16.40;13.40;;;;;;;3.07;76.76;100013.36;105658;1254;60463;-73
2024/03/14 07:34:20;;;;;;;18.50;12.50;;;;;;;3.18;77.20;100013.11;105725;1254;60598;-74
2024/03/14 07:36:48;;;;;;;20.50;14.40;;;;;;;3.27;77.24;100016.54;105798;1254;75850;-73
2024/03/14 07:39:16;;;;;;;19.00;13.40;;;;;;;3.36;77.22;100015.94;105446;1255;71370;-75
2024/03/14 07:41:44;;;;;;;21.60;12.60;;;;;;;3.41;76.62;100019.38;105860;1254;71875;-74
2024/03/14 07:44:11;;;;;;;22.90;14.90;;;;;;;3.43;76.01;100021.18;105655;1256;60544;-70
2024/03/14 07:46:53;;;;;;;22.40;15.00;;;;;;;3.48;75.33;100024.48;105627;1254;61039;-73
2024/03/14 07:49:21;;;;;;;22.80;16.40;;;;;;;3.51;75.15;100026.14;105861;1254;75828;-73
2024/03/14 07:51:48;;;;;;;24.20;17.40;;;;;;;3.45;75.15;100026.44;105552;1254;68943;-74
2024/03/14 07:54:16;;;;;;;25.40;18.40;;;;;;;3.41;75.35;100024.84;105702;1254;71563;-73
2024/03/14 07:56:46;;;;;;;23.60;18.00;;;;;;;3.38;75.76;100017.70;105809;1254;60557;-75
2024/03/14 07:59:14;;;;;;;26.40;18.30;;;;;;;3.39;75.81;100020.25;105963;1254;61812;-73
2024/03/14 08:01:44;;;;;;;21.60;16.40;;;;;;;3.47;75.84;100020.90;105731;1259;74148;-73
2024/03/14 08:04:13;;;;;;;25.00;16.00;;;;;;;3.55;75.81;100019.04;105766;1254;68755;-75
2024/03/14 08:06:45;;;;;;;28.50;17.20;;;;;;;3.57;75.75;100017.19;105606;1254;73055;-74
2024/03/14 08:09:14;;;;;;;25.80;16.90;;;;;;;3.54;76.01;100018.61;105743;1254;60917;-75
2024/03/14 08:11:42;;;;;;;24.20;16.30;;;;;;;3.54;76.01;100015.94;105793;1259;60716;-74
2024/03/14 08:14:10;;;;;;;27.30;17.30;;;;;;;3.57;76.41;100016.95;105759;1256;76106;-75
2024/03/14 08:16:38;;;;;;;22.30;15.80;;;;;;;3.75;76.49;100019.28;105785;1254;69634;-73
2024/03/14 08:19:09;;;;;;;21.10;15.80;;;;;;;3.95;76.42;100014.98;105522;1256;71282;-75
2024/03/14 08:21:37;;;;;;;23.20;15.30;;;;;;;4.11;76.60;100013.55;105984;1260;61204;-74
2024/03/14 08:24:11;;;;;;;22.20;15.50;;;;;;;4.26;76.01;100015.71;106028;1254;60505;-72
2024/03/14 08:26:40;;;;;;;20.50;14.80;;;;;;;4.38;75.68;100015.60;105789;1259;76124;-74
2024/03/14 08:29:08;;;;;;;23.70;15.70;;;;;;;4.53;74.76;100016.39;105734;1254;70226;-74
2024/03/14 08:31:35;;;;;;;17.80;13.90;;;;;;;4.67;74.07;100010.64;105674;1254;73630;-74
2024/03/14 08:34:05;;;;;;;17.20;13.10;;;;;;;4.95;73.60;100010.02;105719;1259;61659;-74
2024/03/14 08:36:40;;;;;;;16.30;12.90;;;;;;;5.14;72.53;100007.73;105835;1256;61870;-74
2024/03/14 08:39:11;;;;;;;14.00;11.60;;;;;;;5.28;71.77;100011.16;105780;1259;76419;-75
2024/03/14 08:41:39;;;;;;;15.90;12.40;;;;;;;5.44;71.73;100007.38;105839;1254;69222;-76
2024/03/14 08:44:07;;;;;;;17.40;11.90;;;;;;;5.59;71.60;100012.95;105624;1256;73629;-74
2024/03/14 08:46:35;;;;;;;14.60;11.30;;;;;;;5.76;70.81;100018.03;105619;1256;61679;-74
2024/03/14 08:49:03;;;;;;;14.60;10.10;;;;;;;5.94;70.61;100017.95;105926;1256;60440;-73
2024/03/14 08:51:37;;;;;;;16.50;11.20;;;;;;;6.12;69.88;100012.86;105803;1254;73216;-76
2024/03/14 08:54:09;;;;;;;11.70;9.00;;;;;;;6.26;69.08;100015.03;105874;1254;68983;-75
2024/03/14 08:56:37;;;;;;;14.20;9.70;;;;;;;6.41;68.25;100012.80;105822;1254;72533;-73
2024/03/14 08:59:05;;;;;;;15.00;10.00;;;;;;;6.56;68.05;100010.46;105670;1261;60543;-73
2024/03/14 09:01:32;;;;;;;14.10;10.20;;;;;;;6.78;69.19;100014.65;106018;1252;61007;-76
2024/03/14 09:04:00;;;;;;;15.20;9.30;;;;;;;7.12;68.42;100012.45;105903;1254;74426;-76
2024/03/14 09:06:30;;;;;;;16.60;11.60;;;;;;;7.41;67.17;100011.41;105933;1256;72498;-75
2024/03/14 09:09:00;;;;;;;15.20;11.00;;;;;;;7.62;66.37;100009.86;105804;1254;72722;-73
2024/03/14 09:11:30;;;;;;;16.70;12.20;;;;;;;7.81;65.58;100010.77;105910;1253;60951;-75
2024/03/14 09:13:58;;;;;;;14.20;12.20;;;;;;;8.08;65.73;100007.20;105928;1254;62497;-74
2024/03/14 09:16:26;;;;;;;17.70;12.70;;;;;;;8.49;65.70;100005.06;106184;1258;75899;-73
2024/03/14 09:19:44;;;;;;;14.60;12.90;;;;;;;9.14;65.53;100004.02;103032;1294;600713;-73
2024/03/14 09:22:11;;;;;;;15.40;13.10;;;;;;;9.45;62.63;100004.48;105059;1267;60330;-72
2024/03/14 09:24:39;;;;;;;15.00;12.10;;;;;;;9.65;62.22;100003.67;105021;1270;62501;-74
2024/03/14 09:27:07;;;;;;;14.90;12.70;;;;;;;9.86;62.47;100003.00;105155;1272;72430;-74
2024/03/14 09:29:34;;;;;;;15.90;12.20;;;;;;;10.08;59.91;100005.45;105071;1268;70808;-75
2024/03/14 09:32:05;;;;;;;16.90;13.60;;;;;;;10.33;61.15;100007.14;104949;1269;75049;-74
2024/03/14 09:34:32;;;;;;;14.80;13.20;;;;;;;10.60;60.24;100005.05;104889;1270;200366;-74
2024/03/14 09:37:00;;;;;;;13.90;12.40;;;;;;;10.74;58.82;100002.52;105283;1266;61806;-73
2024/03/14 09:39:35;;;;;;;14.00;12.00;;;;;;;10.79;58.51;100008.58;105256;1271;73229;-74
2024/03/14 09:42:05;;;;;;;14.70;12.10;;;;;;;10.76;56.61;100003.86;105316;1267;69369;-72
2024/03/14 09:44:33;;;;;;;15.00;11.90;;;;;;;10.58;56.10;100006.87;105219;1267;70738;-74
2024/03/14 09:47:17;;;;;;;13.00;11.20;;;;;;;10.38;55.33;100001.19;105224;1267;60182;-76
2024/03/14 09:49:45;;;;;;;13.60;10.80;;;;;;;10.06;54.63;99998.27;105341;1269;59618;-73
2024/03/14 09:52:13;;;;;;;14.10;11.20;;;;;;;9.74;55.50;99999.05;105249;1267;71853;-75
2024/03/14 09:54:41;;;;;;;14.10;11.10;;;;;;;9.48;55.70;99996.17;105290;1270;71092;-76
2024/03/14 09:57:10;;;;;;;12.40;10.80;;;;;;;9.31;55.65;99994.05;105188;1266;74769;-76
2024/03/14 09:59:37;;;;;;;16.90;12.10;;;;;;;9.03;55.09;99996.78;105362;1270;59765;-76
2024/03/14 10:02:07;;;;;;;15.50;12.60;;;;;;;8.70;55.06;99993.79;105076;1270;59730;-77
2024/03/14 10:04:35;;;;;;;13.70;11.00;;;;;;;8.44;56.24;99998.63;105436;1263;71652;-78
2024/03/14 10:07:03;;;;;;;15.40;12.60;;;;;;;8.18;56.56;99994.00;105489;1268;72719;-76
2024/03/14 10:09:34;;;;;;;15.00;12.10;;;;;;;7.93;56.87;99988.39;106316;1262;73913;-73
2024/03/14 10:12:02;;;;;;;19.10;12.40;;;;;;;7.75;57.83;99994.21;107520;1263;59370;-74
2024/03/14 10:14:32;;;;;;;15.20;12.20;;;;;;;7.65;58.35;99994.97;107367;1263;59644;-73
2024/03/14 10:17:00;;;;;;;15.90;11.90;;;;;;;7.59;58.32;99992.88;105666;1262;72040;-72
2024/03/14 10:19:30;;;;;;;16.90;12.30;;;;;;;7.54;58.56;99992.27;105451;1263;69317;-73
2024/03/14 10:22:01;;;;;;;16.60;12.50;;;;;;;7.48;58.34;99993.33;105372;1263;72905;-73
2024/03/14 10:24:30;;;;;;;18.30;12.00;;;;;;;7.40;58.50;99988.31;105262;1263;61317;-75
2024/03/14 10:26:58;;;;;;;18.00;12.40;;;;;;;7.35;58.87;99986.75;105482;1260;63591;-75
2024/03/14 10:29:33;;;;;;;15.10;12.50;;;;;;;7.33;58.47;99986.98;105505;1260;72812;-73
2024/03/14 10:32:01;;;;;;;19.00;12.90;;;;;;;7.32;58.89;99987.46;105534;1260;72400;-76
2024/03/14 10:34:28;;;;;;;16.40;12.40;;;;;;;7.33;58.98;99987.04;105828;1254;72660;-75
2024/03/14 10:36:56;;;;;;;16.60;13.30;;;;;;;7.35;58.49;99986.12;105930;1254;59642;-79
2024/03/14 10:39:25;;;;;;;15.60;11.90;;;;;;;7.34;58.75;99985.48;105992;1256;59708;-77
2024/03/14 10:41:53;;;;;;;20.30;14.30;;;;;;;7.37;58.75;99991.03;105771;1262;75253;-76
2024/03/14 10:44:24;;;;;;;14.70;11.90;;;;;;;7.41;58.98;99991.54;105826;1254;71444;-75
2024/03/14 10:46:52;;;;;;;16.50;12.10;;;;;;;7.45;58.11;99992.05;105617;1260;77295;-75
2024/03/14 10:49:22;;;;;;;13.00;9.70;;;;;;;7.42;57.07;99993.31;105897;1258;60164;-76
2024/03/14 10:51:49;;;;;;;14.20;10.60;;;;;;;7.35;55.77;99993.10;105903;1259;60879;-77
2024/03/14 10:54:26;;;;;;;11.40;9.70;;;;;;;7.25;54.81;99990.66;105818;1259;73303;-74
2024/03/14 10:56:54;;;;;;;12.70;9.60;;;;;;;7.17;54.20;99992.67;105831;1254;71817;-77
2024/03/14 10:59:21;;;;;;;10.10;8.60;;;;;;;7.06;53.96;99991.56;105704;1257;73056;-76
2024/03/14 11:01:54;;;;;;;13.30;9.50;;;;;;;6.95;53.72;99992.75;105688;1257;59674;-76
2024/03/14 11:04:24;;;;;;;12.50;9.10;;;;;;;6.87;54.10;99989.38;106390;1254;61141;-75
2024/03/14 11:06:53;;;;;;;12.10;9.30;;;;;;;6.85;54.09;99992.33;107267;1257;74175;-75
2024/03/14 11:09:24;;;;;;;11.90;8.70;;;;;;;6.84;53.87;99991.20;107101;1254;70693;-79
2024/03/14 11:11:54;;;;;;;11.20;8.70;;;;;;;6.84;53.94;99990.52;106176;1259;72841;-73
2024/03/14 11:14:30;;;;;;;15.40;8.80;;;;;;;6.83;53.62;99983.60;105844;1258;60631;-77
2024/03/14 11:16:58;;;;;;;14.10;8.90;;;;;;;6.82;53.69;99981.42;105837;1260;59622;-77
2024/03/14 11:19:29;;;;;;;10.40;8.90;;;;;;;6.80;53.82;99982.77;106000;1257;72775;-77
2024/03/14 11:21:57;;;;;;;14.50;8.90;;;;;;;6.82;53.95;99983.67;105923;1256;71916;-77
2024/03/14 11:24:30;;;;;;;13.70;9.20;;;;;;;6.82;54.00;99988.81;105919;1259;71761;-74
2024/03/14 11:27:01;;;;;;;12.20;9.20;;;;;;;6.82;54.35;99990.67;105808;1255;60530;-78
2024/03/14 11:29:33;;;;;;;11.20;8.80;;;;;;;6.79;54.00;99989.02;105703;1256;60905;-75
2024/03/14 11:32:11;;;;;;;17.50;9.40;;;;;;;6.72;53.61;99994.43;105872;1254;73238;-76
2024/03/14 11:34:39;;;;;;;14.90;9.10;;;;;;;6.67;53.62;99997.34;105915;1257;71939;-77